createdAt,value
2022-09-15T00:00:12.020Z,15.10
2022-09-15T00:00:54.459Z,14.90
2022-09-15T00:01:36.436Z,15.50
2022-09-15T00:02:18.267Z,15.80
2022-09-15T00:03:00.662Z,15.60
2022-09-15T00:03:42.783Z,15.30
2022-09-15T00:04:24.442Z,15.30
2022-09-15T00:05:06.386Z,15.20
2022-09-15T00:05:48.089Z,15.00
2022-09-15T00:06:29.732Z,15.10
2022-09-15T00:07:11.427Z,15.30
2022-09-15T00:07:53.120Z,15.40
2022-09-15T00:08:35.085Z,15.60
2022-09-15T00:09:16.796Z,15.20
2022-09-15T00:09:58.438Z,15.50
2022-09-15T00:10:57.632Z,15.30
2022-09-15T00:11:39.609Z,15.20
2022-09-15T00:12:21.253Z,15.20
2022-09-15T00:13:03.030Z,15.20
2022-09-15T00:13:45.587Z,15.30
2022-09-15T00:14:27.251Z,15.40
2022-09-15T00:15:12.439Z,15.20
2022-09-15T00:15:54.443Z,15.30
2022-09-15T00:16:36.481Z,15.60
2022-09-15T00:17:18.234Z,15.10
2022-09-15T00:17:59.878Z,15.40
2022-09-15T00:18:41.874Z,15.20
2022-09-15T00:19:23.580Z,15.50
2022-09-15T00:20:06.863Z,15.50
2022-09-15T00:20:48.596Z,15.20
2022-09-15T00:21:32.872Z,15.40
2022-09-15T00:22:14.667Z,15.30
2022-09-15T00:22:56.486Z,15.20
2022-09-15T00:23:38.729Z,15.50
2022-09-15T00:24:20.361Z,15.70
2022-09-15T00:25:02.006Z,15.30
2022-09-15T00:25:46.309Z,15.10
2022-09-15T00:26:31.801Z,15.10
2022-09-15T00:27:13.443Z,15.50
2022-09-15T00:27:55.060Z,15.20
2022-09-15T00:28:37.697Z,15.30
2022-09-15T00:29:19.427Z,15.30
2022-09-15T00:30:01.624Z,15.20
2022-09-15T00:30:45.667Z,15.30
2022-09-15T00:31:29.250Z,15.50
2022-09-15T00:32:10.915Z,15.50
2022-09-15T00:32:52.558Z,15.30
2022-09-15T00:33:34.324Z,15.40
2022-09-15T00:34:16.259Z,15.40
2022-09-15T00:34:57.997Z,15.10
2022-09-15T00:35:40.858Z,15.00
2022-09-15T00:36:24.656Z,15.60
2022-09-15T00:37:06.466Z,15.60
2022-09-15T00:37:48.119Z,15.00
2022-09-15T00:38:30.138Z,15.50
2022-09-15T00:39:12.258Z,15.50
2022-09-15T00:39:53.961Z,15.60
2022-09-15T00:40:47.654Z,15.80
2022-09-15T00:41:30.061Z,15.00
2022-09-15T00:42:17.257Z,15.50
2022-09-15T00:42:58.944Z,15.50
2022-09-15T00:43:51.621Z,15.10
2022-09-15T00:44:36.407Z,15.60
2022-09-15T00:45:18.066Z,15.30
2022-09-15T00:45:59.760Z,15.30
2022-09-15T00:46:54.678Z,14.80
2022-09-15T00:47:46.061Z,15.70
2022-09-15T00:48:27.705Z,15.60
2022-09-15T00:49:18.478Z,15.20
2022-09-15T00:50:11.210Z,15.50
2022-09-15T00:50:56.803Z,15.20
2022-09-15T00:51:59.308Z,15.60
2022-09-15T00:52:58.732Z,15.10
2022-09-15T00:53:41.115Z,15.50
2022-09-15T00:54:30.963Z,15.50
2022-09-15T00:55:25.245Z,15.50
2022-09-15T00:56:09.414Z,15.30
2022-09-15T00:56:55.093Z,15.50
2022-09-15T00:57:48.332Z,15.40
2022-09-15T00:58:42.239Z,15.00
2022-09-15T00:59:28.183Z,15.50
2022-09-15T01:00:14.979Z,15.40
2022-09-15T01:01:00.595Z,15.10
2022-09-15T01:01:43.747Z,15.50
2022-09-15T01:02:29.201Z,15.70
2022-09-15T01:03:11.010Z,15.50
2022-09-15T01:03:52.727Z,15.30
2022-09-15T01:04:34.390Z,15.00
2022-09-15T01:05:19.463Z,15.50
2022-09-15T01:06:23.805Z,15.30
2022-09-15T01:07:07.821Z,15.70
2022-09-15T01:07:59.112Z,15.40
2022-09-15T01:09:05.046Z,15.10
2022-09-15T01:09:53.717Z,15.40
2022-09-15T01:10:38.898Z,15.60
2022-09-15T01:11:20.976Z,15.50
2022-09-15T01:12:04.081Z,15.30
2022-09-15T01:12:45.959Z,14.90
2022-09-15T01:13:29.627Z,14.90
2022-09-15T01:14:11.624Z,15.50
2022-09-15T01:14:53.601Z,15.30
2022-09-15T01:15:58.206Z,15.60
2022-09-15T01:16:51.845Z,14.90
2022-09-15T01:17:42.726Z,15.30
2022-09-15T01:18:27.474Z,14.90
2022-09-15T01:19:37.253Z,15.40
2022-09-15T01:20:56.432Z,14.90
2022-09-15T01:22:13.196Z,15.20
2022-09-15T01:23:23.473Z,14.90
2022-09-15T01:24:22.768Z,14.80
2022-09-15T01:25:09.973Z,14.70
2022-09-15T01:26:06.379Z,15.30
2022-09-15T01:27:24.028Z,15.10
2022-09-15T01:28:20.199Z,14.70
2022-09-15T01:29:23.325Z,14.90
2022-09-15T01:30:09.425Z,14.90
2022-09-15T01:31:24.358Z,15.40
2022-09-15T01:32:56.345Z,14.90
2022-09-15T01:34:05.898Z,14.90
2022-09-15T01:35:22.058Z,15.00
2022-09-15T01:36:42.286Z,14.90
2022-09-15T01:37:29.742Z,15.00
2022-09-15T01:38:26.510Z,15.30
2022-09-15T01:39:13.932Z,14.90
2022-09-15T01:39:58.784Z,14.90
2022-09-15T01:40:59.588Z,15.40
2022-09-15T01:41:50.211Z,15.00
2022-09-15T01:42:33.358Z,14.90
2022-09-15T01:43:16.955Z,15.20
2022-09-15T01:44:35.137Z,15.40
2022-09-15T01:45:24.706Z,15.00
2022-09-15T01:46:07.574Z,14.80
2022-09-15T01:46:54.335Z,15.40
2022-09-15T01:47:37.144Z,15.20
2022-09-15T01:48:22.271Z,15.20
2022-09-15T01:49:07.118Z,15.30
2022-09-15T01:49:59.889Z,15.20
2022-09-15T01:50:46.754Z,14.90
2022-09-15T01:51:30.075Z,15.30
2022-09-15T01:52:14.429Z,15.50
2022-09-15T01:53:02.922Z,15.40
2022-09-15T01:53:46.562Z,15.30
2022-09-15T01:54:36.970Z,15.10
2022-09-15T01:55:25.224Z,15.20
2022-09-15T01:56:11.590Z,15.50
2022-09-15T01:56:53.295Z,15.30
2022-09-15T01:57:34.990Z,15.10
2022-09-15T01:58:16.695Z,15.30
2022-09-15T01:58:58.485Z,15.30
2022-09-15T01:59:40.129Z,15.00
2022-09-15T02:00:21.785Z,15.30
2022-09-15T02:01:28.118Z,14.90
2022-09-15T02:02:34.028Z,14.90
2022-09-15T02:03:33.732Z,15.00
2022-09-15T02:04:27.795Z,15.40
2022-09-15T02:05:19.836Z,14.90
2022-09-15T02:06:08.721Z,15.10
2022-09-15T02:07:00.845Z,14.90
2022-09-15T02:08:11.122Z,14.90
2022-09-15T02:09:06.171Z,15.00
2022-09-15T02:09:54.582Z,15.50
2022-09-15T02:11:08.403Z,14.80
2022-09-15T02:12:39.410Z,15.00
2022-09-15T02:13:52.905Z,15.10
2022-09-15T02:14:56.750Z,15.00
2022-09-15T02:15:47.002Z,14.90
2022-09-15T02:16:35.072Z,14.80
2022-09-15T02:17:19.501Z,15.00
2022-09-15T02:18:05.769Z,15.00
2022-09-15T02:19:08.790Z,14.90
2022-09-15T02:20:15.975Z,14.80
2022-09-15T02:21:13.639Z,14.70
2022-09-15T02:22:09.370Z,14.90
2022-09-15T02:22:57.156Z,15.50
2022-09-15T02:23:43.686Z,15.30
2022-09-15T02:24:32.208Z,15.30
2022-09-15T02:25:28.823Z,15.20
2022-09-15T02:26:14.681Z,14.90
2022-09-15T02:26:57.865Z,15.50
2022-09-15T02:27:49.983Z,15.30
2022-09-15T02:28:36.257Z,15.40
2022-09-15T02:29:21.153Z,15.60
2022-09-15T02:30:07.734Z,14.80
2022-09-15T02:30:50.785Z,15.00
2022-09-15T02:31:35.017Z,15.50
2022-09-15T02:32:19.126Z,15.30
2022-09-15T02:33:06.679Z,15.10
2022-09-15T02:33:53.292Z,15.60
2022-09-15T02:34:40.026Z,15.50
2022-09-15T02:35:23.383Z,15.20
2022-09-15T02:36:05.973Z,14.90
2022-09-15T02:36:49.911Z,15.10
2022-09-15T02:37:31.657Z,15.00
2022-09-15T02:38:15.082Z,15.00
2022-09-15T02:39:03.417Z,15.30
2022-09-15T02:39:51.952Z,15.30
2022-09-15T02:40:33.793Z,15.40
2022-09-15T02:41:15.482Z,14.90
2022-09-15T02:41:57.210Z,15.10
2022-09-15T02:42:39.306Z,15.20
2022-09-15T02:43:20.966Z,15.00
2022-09-15T02:44:03.625Z,15.50
2022-09-15T02:44:45.243Z,15.00
2022-09-15T02:45:27.618Z,15.40
2022-09-15T02:46:09.373Z,15.20
2022-09-15T02:46:51.335Z,15.40
2022-09-15T02:47:33.095Z,15.00
2022-09-15T02:48:14.786Z,15.20
2022-09-15T02:48:56.962Z,15.20
2022-09-15T02:49:38.573Z,15.10
2022-09-15T02:50:20.642Z,15.20
2022-09-15T02:51:02.290Z,14.90
2022-09-15T02:51:43.919Z,15.40
2022-09-15T02:52:26.110Z,15.30
2022-09-15T02:53:08.761Z,15.20
2022-09-15T02:53:50.478Z,15.00
2022-09-15T02:54:32.293Z,15.10
2022-09-15T02:55:14.014Z,14.90
2022-09-15T02:55:56.202Z,15.20
2022-09-15T02:56:37.980Z,15.30
2022-09-15T02:57:19.785Z,15.50
2022-09-15T02:58:01.577Z,15.10
2022-09-15T02:58:43.838Z,15.30
2022-09-15T02:59:25.741Z,14.80
2022-09-15T03:00:14.490Z,15.00
2022-09-15T03:00:56.262Z,14.90
2022-09-15T03:01:38.901Z,15.10
2022-09-15T03:02:20.859Z,15.10
2022-09-15T03:03:02.573Z,15.20
2022-09-15T03:03:45.815Z,13.40
2022-09-15T03:04:27.436Z,15.10
2022-09-15T03:05:10.423Z,15.10
2022-09-15T03:05:52.077Z,15.00
2022-09-15T03:06:36.706Z,15.40
2022-09-15T03:07:18.890Z,14.90
2022-09-15T03:08:00.783Z,15.10
2022-09-15T03:08:52.455Z,15.40
2022-09-15T03:09:34.155Z,14.90
2022-09-15T03:10:16.111Z,14.80
2022-09-15T03:10:57.841Z,14.70
2022-09-15T03:11:39.524Z,15.30
2022-09-15T03:12:21.153Z,15.40
2022-09-15T03:13:02.773Z,15.10
2022-09-15T03:13:44.562Z,14.90
2022-09-15T03:14:26.201Z,15.10
2022-09-15T03:15:09.282Z,15.10
2022-09-15T03:15:50.906Z,14.70
2022-09-15T03:16:34.473Z,15.20
2022-09-15T03:17:17.255Z,15.00
2022-09-15T03:17:58.905Z,15.10
2022-09-15T03:18:41.637Z,15.00
2022-09-15T03:19:23.248Z,15.20
2022-09-15T03:20:06.412Z,15.20
2022-09-15T03:20:48.106Z,14.60
2022-09-15T03:21:30.266Z,14.80
2022-09-15T03:22:12.001Z,14.80
2022-09-15T03:22:54.348Z,15.10
2022-09-15T03:23:36.807Z,15.00
2022-09-15T03:24:22.243Z,15.00
2022-09-15T03:25:07.543Z,15.10
2022-09-15T03:25:49.161Z,14.90
2022-09-15T03:26:31.075Z,15.00
2022-09-15T03:27:12.756Z,15.10
2022-09-15T03:27:54.459Z,14.60
2022-09-15T03:28:37.163Z,14.90
2022-09-15T03:29:18.790Z,14.60
2022-09-15T03:30:00.771Z,14.90
2022-09-15T03:30:42.390Z,14.50
2022-09-15T03:31:24.092Z,14.80
2022-09-15T03:32:06.101Z,15.00
2022-09-15T03:32:48.662Z,14.50
2022-09-15T03:33:30.441Z,15.10
2022-09-15T03:34:12.054Z,15.50
2022-09-15T03:34:57.702Z,14.70
2022-09-15T03:35:40.065Z,14.50
2022-09-15T03:36:21.954Z,14.90
2022-09-15T03:37:03.845Z,14.90
2022-09-15T03:37:45.825Z,14.50
2022-09-15T03:38:27.450Z,15.00
2022-09-15T03:39:11.539Z,14.60
2022-09-15T03:39:53.271Z,15.00
2022-09-15T03:40:35.099Z,14.90
2022-09-15T03:41:16.740Z,15.10
2022-09-15T03:41:58.410Z,14.70
2022-09-15T03:42:40.122Z,14.90
2022-09-15T03:43:21.787Z,15.00
2022-09-15T03:44:03.912Z,14.90
2022-09-15T03:44:45.720Z,14.80
2022-09-15T03:45:27.440Z,14.70
2022-09-15T03:46:11.529Z,14.80
2022-09-15T03:46:53.189Z,14.70
2022-09-15T03:47:34.835Z,14.40
2022-09-15T03:48:17.317Z,15.00
2022-09-15T03:48:58.946Z,14.80
2022-09-15T03:49:40.602Z,14.30
2022-09-15T03:50:22.247Z,15.00
2022-09-15T03:51:05.654Z,14.90
2022-09-15T03:51:47.318Z,14.40
2022-09-15T03:52:31.895Z,14.80
2022-09-15T03:53:13.577Z,14.70
2022-09-15T03:53:55.694Z,14.90
2022-09-15T03:54:37.317Z,14.70
2022-09-15T03:55:19.085Z,14.70
2022-09-15T03:56:23.530Z,14.70
2022-09-15T03:57:05.209Z,14.70
2022-09-15T03:57:46.841Z,14.70
2022-09-15T03:58:30.751Z,14.60
2022-09-15T03:59:12.654Z,14.50
2022-09-15T03:59:54.344Z,14.60
2022-09-15T04:00:36.138Z,14.80
2022-09-15T04:01:21.705Z,14.30
2022-09-15T04:02:03.616Z,14.30
2022-09-15T04:02:45.663Z,14.40
2022-09-15T04:03:27.284Z,14.80
2022-09-15T04:04:08.926Z,14.70
2022-09-15T04:04:50.612Z,14.50
2022-09-15T04:05:32.397Z,14.20
2022-09-15T04:06:15.116Z,14.50
2022-09-15T04:06:56.827Z,14.90
2022-09-15T04:07:39.124Z,14.60
2022-09-15T04:08:20.779Z,14.60
2022-09-15T04:09:02.430Z,14.30
2022-09-15T04:09:44.097Z,14.40
2022-09-15T04:10:25.914Z,14.40
2022-09-15T04:11:09.870Z,14.60
2022-09-15T04:11:51.574Z,14.40
2022-09-15T04:12:33.434Z,14.30
2022-09-15T04:13:15.088Z,14.60
2022-09-15T04:13:56.935Z,14.90
2022-09-15T04:14:38.645Z,14.70
2022-09-15T04:15:21.021Z,14.60
2022-09-15T04:16:05.533Z,14.70
2022-09-15T04:16:47.285Z,14.20
2022-09-15T04:17:30.028Z,14.20
2022-09-15T04:18:11.688Z,14.30
2022-09-15T04:18:55.209Z,14.70
2022-09-15T04:19:37.172Z,14.80
2022-09-15T04:20:18.980Z,14.20
2022-09-15T04:21:02.055Z,14.70
2022-09-15T04:21:45.476Z,14.40
2022-09-15T04:22:30.337Z,14.80
2022-09-15T04:23:11.969Z,14.50
2022-09-15T04:23:54.593Z,14.30
2022-09-15T04:24:36.309Z,14.70
2022-09-15T04:25:18.181Z,14.30
2022-09-15T04:26:05.200Z,14.40
2022-09-15T04:26:47.000Z,14.40
2022-09-15T04:27:29.010Z,14.60
2022-09-15T04:28:10.643Z,14.60
2022-09-15T04:28:52.371Z,14.70
2022-09-15T04:29:34.082Z,14.50
2022-09-15T04:30:15.740Z,14.40
2022-09-15T04:31:08.662Z,14.30
2022-09-15T04:31:50.587Z,14.30
2022-09-15T04:32:32.480Z,14.70
2022-09-15T04:33:14.147Z,14.60
2022-09-15T04:33:56.200Z,14.30
2022-09-15T04:34:41.354Z,14.30
2022-09-15T04:35:23.556Z,14.30
2022-09-15T04:36:08.744Z,14.30
2022-09-15T04:36:50.581Z,14.40
2022-09-15T04:37:32.400Z,15.00
2022-09-15T04:38:14.033Z,14.60
2022-09-15T04:38:56.638Z,14.30
2022-09-15T04:39:38.597Z,14.50
2022-09-15T04:40:20.369Z,14.50
2022-09-15T04:41:02.833Z,15.00
2022-09-15T04:41:44.458Z,14.80
2022-09-15T04:42:26.130Z,14.60
2022-09-15T04:43:07.965Z,14.90
2022-09-15T04:43:50.360Z,14.70
2022-09-15T04:44:32.586Z,14.30
2022-09-15T04:45:14.390Z,14.40
2022-09-15T04:45:56.350Z,14.70
2022-09-15T04:46:38.131Z,14.60
2022-09-15T04:47:20.070Z,14.70
2022-09-15T04:48:01.915Z,14.40
2022-09-15T04:48:45.448Z,14.40
2022-09-15T04:49:28.596Z,14.70
2022-09-15T04:50:10.340Z,14.40
2022-09-15T04:50:52.725Z,14.60
2022-09-15T04:51:34.510Z,14.50
2022-09-15T04:52:16.642Z,14.60
2022-09-15T04:52:58.270Z,14.70
2022-09-15T04:53:40.254Z,14.80
2022-09-15T04:54:21.928Z,14.50
2022-09-15T04:55:03.762Z,14.50
2022-09-15T04:55:45.413Z,14.50
2022-09-15T04:56:27.663Z,14.40
2022-09-15T04:57:09.541Z,14.40
2022-09-15T04:57:51.251Z,14.50
2022-09-15T04:58:40.975Z,14.30
2022-09-15T04:59:22.614Z,14.40
2022-09-15T05:00:06.622Z,15.00
2022-09-15T05:00:48.293Z,14.30
2022-09-15T05:01:32.319Z,14.90
2022-09-15T05:02:14.056Z,14.60
2022-09-15T05:02:55.767Z,14.70
2022-09-15T05:03:38.350Z,14.60
2022-09-15T05:04:19.995Z,15.00
2022-09-15T05:05:02.151Z,14.70
2022-09-15T05:05:43.784Z,15.00
2022-09-15T05:06:27.217Z,14.60
2022-09-15T05:07:08.950Z,14.40
2022-09-15T05:07:50.934Z,14.80
2022-09-15T05:08:32.800Z,14.80
2022-09-15T05:09:14.900Z,14.60
2022-09-15T05:09:56.549Z,14.50
2022-09-15T05:10:38.208Z,14.30
2022-09-15T05:11:21.035Z,14.80
2022-09-15T05:12:02.746Z,14.70
2022-09-15T05:12:44.410Z,14.30
2022-09-15T05:13:26.342Z,14.70
2022-09-15T05:14:09.543Z,14.50
2022-09-15T05:14:51.168Z,14.50
2022-09-15T05:15:32.953Z,14.40
2022-09-15T05:16:26.609Z,14.80
2022-09-15T05:17:08.305Z,14.70
2022-09-15T05:17:49.916Z,14.70
2022-09-15T05:18:32.991Z,15.00
2022-09-15T05:19:14.606Z,14.50
2022-09-15T05:19:56.228Z,14.80
2022-09-15T05:20:37.882Z,14.80
2022-09-15T05:21:21.396Z,15.20
2022-09-15T05:22:03.061Z,14.80
2022-09-15T05:22:45.195Z,15.00
2022-09-15T05:23:27.129Z,14.60
2022-09-15T05:24:08.897Z,14.80
2022-09-15T05:24:50.519Z,14.80
2022-09-15T05:25:32.141Z,14.80
2022-09-15T05:26:16.587Z,14.60
2022-09-15T05:26:58.244Z,14.60
2022-09-15T05:27:40.385Z,15.00
2022-09-15T05:28:22.078Z,14.60
2022-09-15T05:29:03.709Z,14.50
2022-09-15T05:29:45.360Z,15.00
2022-09-15T05:30:44.385Z,14.80
2022-09-15T05:31:28.808Z,14.70
2022-09-15T05:32:10.515Z,14.50
2022-09-15T05:32:53.228Z,15.20
2022-09-15T05:33:36.022Z,14.60
2022-09-15T05:34:17.728Z,15.00
2022-09-15T05:34:59.353Z,14.70
2022-09-15T05:35:49.118Z,15.00
2022-09-15T05:36:31.446Z,15.10
2022-09-15T05:37:13.073Z,15.00
2022-09-15T05:37:54.757Z,15.00
2022-09-15T05:38:36.418Z,15.10
2022-09-15T05:39:18.278Z,14.90
2022-09-15T05:39:59.971Z,14.70
2022-09-15T05:40:41.766Z,14.80
2022-09-15T05:41:24.172Z,14.80
2022-09-15T05:42:06.120Z,14.80
2022-09-15T05:42:47.758Z,14.70
2022-09-15T05:43:32.494Z,14.90
2022-09-15T05:44:14.170Z,14.80
2022-09-15T05:44:55.818Z,15.10
2022-09-15T05:45:37.568Z,14.60
2022-09-15T05:46:20.475Z,15.10
2022-09-15T05:47:02.293Z,15.20
2022-09-15T05:47:43.935Z,14.70
2022-09-15T05:48:25.622Z,15.20
2022-09-15T05:49:08.710Z,14.50
2022-09-15T05:49:50.679Z,14.60
2022-09-15T05:50:32.309Z,15.10
2022-09-15T05:51:14.730Z,15.00
2022-09-15T05:51:56.426Z,14.80
2022-09-15T05:52:38.136Z,15.30
2022-09-15T05:53:20.742Z,15.10
2022-09-15T05:54:02.643Z,15.10
2022-09-15T05:54:44.310Z,14.80
2022-09-15T05:55:26.326Z,15.10
2022-09-15T05:56:12.051Z,14.70
2022-09-15T05:56:53.668Z,14.70
2022-09-15T05:57:35.285Z,15.40
2022-09-15T05:58:16.897Z,15.00
2022-09-15T05:58:58.546Z,15.10
2022-09-15T05:59:41.937Z,15.20
2022-09-15T06:00:24.620Z,15.30
2022-09-15T06:01:08.657Z,14.90
2022-09-15T06:01:50.508Z,14.90
2022-09-15T06:02:32.287Z,15.00
2022-09-15T06:03:15.880Z,14.90
2022-09-15T06:03:58.028Z,15.10
2022-09-15T06:04:39.726Z,14.90
2022-09-15T06:05:21.357Z,15.00
2022-09-15T06:06:05.120Z,15.20
2022-09-15T06:06:46.737Z,14.90
2022-09-15T06:07:28.365Z,15.20
2022-09-15T06:08:10.591Z,15.00
2022-09-15T06:08:58.681Z,15.40
2022-09-15T06:09:42.194Z,15.30
2022-09-15T06:10:24.993Z,15.10
2022-09-15T06:11:09.700Z,15.00
2022-09-15T06:11:52.129Z,15.50
2022-09-15T06:12:34.034Z,15.00
2022-09-15T06:13:15.703Z,14.70
2022-09-15T06:14:02.992Z,15.30
2022-09-15T06:14:45.846Z,15.20
2022-09-15T06:15:27.627Z,15.40
2022-09-15T06:16:12.111Z,15.20
2022-09-15T06:16:53.877Z,15.10
2022-09-15T06:17:35.516Z,15.20
2022-09-15T06:18:17.400Z,15.50
2022-09-15T06:19:00.851Z,15.10
2022-09-15T06:19:42.586Z,14.90
2022-09-15T06:20:24.740Z,15.10
2022-09-15T06:21:14.485Z,15.50
2022-09-15T06:21:56.218Z,15.00
2022-09-15T06:22:38.295Z,15.20
2022-09-15T06:23:19.917Z,15.40
2022-09-15T06:24:04.444Z,15.30
2022-09-15T06:24:46.104Z,14.90
2022-09-15T06:25:27.741Z,15.40
2022-09-15T06:26:15.214Z,15.00
2022-09-15T06:26:56.830Z,15.20
2022-09-15T06:27:39.001Z,15.30
2022-09-15T06:28:21.224Z,15.50
2022-09-15T06:29:05.164Z,15.60
2022-09-15T06:29:46.912Z,15.00
2022-09-15T06:30:28.533Z,15.40
2022-09-15T06:31:12.249Z,15.40
2022-09-15T06:31:53.975Z,15.30
2022-09-15T06:32:39.119Z,14.90
2022-09-15T06:33:20.754Z,15.50
2022-09-15T06:34:03.940Z,15.70
2022-09-15T06:34:46.090Z,15.10
2022-09-15T06:35:27.718Z,15.20
2022-09-15T06:36:11.653Z,15.40
2022-09-15T06:36:53.572Z,15.10
2022-09-15T06:37:35.284Z,15.10
2022-09-15T06:38:17.198Z,15.40
2022-09-15T06:38:59.215Z,15.30
2022-09-15T06:39:40.837Z,15.00
2022-09-15T06:40:22.675Z,15.30
2022-09-15T06:41:05.321Z,15.00
2022-09-15T06:42:01.878Z,15.20
2022-09-15T06:42:44.198Z,15.60
2022-09-15T06:43:26.146Z,15.20
2022-09-15T06:44:09.713Z,15.20
2022-09-15T06:44:51.616Z,15.10
2022-09-15T06:45:33.371Z,15.10
2022-09-15T06:46:26.224Z,15.20
2022-09-15T06:47:07.939Z,15.20
2022-09-15T06:48:07.595Z,15.60
2022-09-15T06:48:54.176Z,15.00
2022-09-15T06:49:35.893Z,15.50
2022-09-15T06:50:17.554Z,15.20
2022-09-15T06:51:00.595Z,15.40
2022-09-15T06:51:42.325Z,15.40
2022-09-15T06:52:24.194Z,15.40
2022-09-15T06:53:05.850Z,15.30
2022-09-15T06:53:47.524Z,15.40
2022-09-15T06:54:29.238Z,16.50
2022-09-15T06:55:10.868Z,15.50
2022-09-15T06:55:52.492Z,15.20
2022-09-15T06:56:37.853Z,15.70
2022-09-15T06:57:20.201Z,15.90
2022-09-15T06:58:01.852Z,15.40
2022-09-15T06:58:44.836Z,15.60
2022-09-15T06:59:26.642Z,15.80
2022-09-15T07:00:09.263Z,15.30
2022-09-15T07:00:51.425Z,15.40
2022-09-15T07:01:33.721Z,15.60
2022-09-15T07:02:15.520Z,15.70
2022-09-15T07:02:57.556Z,15.80
2022-09-15T07:03:42.430Z,15.60
2022-09-15T07:04:24.158Z,15.30
2022-09-15T07:05:06.030Z,15.70
2022-09-15T07:05:47.661Z,15.40
2022-09-15T07:06:30.985Z,15.70
2022-09-15T07:07:12.850Z,15.70
2022-09-15T07:07:54.588Z,15.50
2022-09-15T07:08:36.248Z,15.40
2022-09-15T07:09:18.370Z,15.60
2022-09-15T07:10:01.215Z,15.70
2022-09-15T07:10:45.002Z,15.70
2022-09-15T07:11:26.750Z,16.00
2022-09-15T07:12:08.639Z,15.30
2022-09-15T07:12:50.312Z,15.50
2022-09-15T07:13:31.993Z,15.30
2022-09-15T07:14:13.716Z,15.50
2022-09-15T07:14:55.353Z,15.50
2022-09-15T07:15:37.006Z,15.80
2022-09-15T07:16:20.653Z,15.60
2022-09-15T07:17:02.863Z,15.50
2022-09-15T07:17:44.544Z,15.50
2022-09-15T07:18:26.752Z,15.50
2022-09-15T07:19:08.469Z,15.70
2022-09-15T07:19:50.094Z,16.00
2022-09-15T07:20:32.750Z,15.60
2022-09-15T07:21:19.947Z,16.00
2022-09-15T07:22:02.067Z,15.50
2022-09-15T07:22:44.207Z,15.60
2022-09-15T07:23:26.410Z,15.70
2022-09-15T07:24:10.302Z,15.80
2022-09-15T07:24:51.986Z,15.70
2022-09-15T07:25:33.810Z,15.60
2022-09-15T07:26:18.114Z,15.50
2022-09-15T07:27:00.883Z,16.00
2022-09-15T07:27:42.547Z,15.90
2022-09-15T07:28:24.171Z,15.90
2022-09-15T07:29:07.217Z,15.60
2022-09-15T07:29:48.873Z,15.80
2022-09-15T07:30:30.578Z,15.70
2022-09-15T07:31:14.794Z,15.90
2022-09-15T07:31:56.580Z,15.60
2022-09-15T07:32:38.403Z,16.10
2022-09-15T07:33:20.090Z,15.80
2022-09-15T07:34:04.664Z,15.70
2022-09-15T07:34:46.890Z,16.00
2022-09-15T07:35:28.519Z,15.70
2022-09-15T07:36:10.565Z,15.60
2022-09-15T07:36:52.274Z,15.70
2022-09-15T07:37:34.294Z,15.80
2022-09-15T07:38:15.919Z,16.00
2022-09-15T07:38:58.448Z,15.90
2022-09-15T07:39:40.085Z,15.80
2022-09-15T07:40:22.112Z,16.30
2022-09-15T07:41:09.695Z,16.40
2022-09-15T07:41:51.707Z,16.00
2022-09-15T07:42:35.549Z,16.40
2022-09-15T07:43:17.421Z,16.10
2022-09-15T07:44:00.172Z,16.10
2022-09-15T07:44:41.829Z,16.40
2022-09-15T07:45:23.661Z,16.00
2022-09-15T07:46:06.257Z,16.30
2022-09-15T07:46:47.939Z,16.00
2022-09-15T07:47:29.574Z,16.20
2022-09-15T07:48:11.249Z,16.10
2022-09-15T07:48:56.411Z,16.20
2022-09-15T07:49:38.126Z,16.50
2022-09-15T07:50:19.803Z,16.50
2022-09-15T07:51:01.574Z,16.40
2022-09-15T07:51:43.495Z,16.50
2022-09-15T07:52:25.311Z,16.30
2022-09-15T07:53:07.321Z,16.60
2022-09-15T07:53:50.811Z,16.30
2022-09-15T07:54:32.530Z,16.00
2022-09-15T07:55:14.356Z,16.50
2022-09-15T07:55:56.351Z,16.20
2022-09-15T07:56:38.002Z,16.30
2022-09-15T07:57:19.648Z,16.30
2022-09-15T07:58:01.412Z,16.10
2022-09-15T07:58:43.148Z,16.10
2022-09-15T07:59:24.804Z,16.20
2022-09-15T08:00:07.186Z,16.10
2022-09-15T08:00:49.210Z,16.10
2022-09-15T08:01:30.997Z,16.40
2022-09-15T08:02:22.122Z,15.90
2022-09-15T08:03:03.986Z,16.20
2022-09-15T08:03:48.759Z,16.30
2022-09-15T08:04:30.430Z,16.10
2022-09-15T08:05:12.325Z,16.50
2022-09-15T08:06:01.300Z,16.10
2022-09-15T08:06:42.923Z,16.20
2022-09-15T08:07:25.059Z,16.20
2022-09-15T08:08:06.783Z,16.60
2022-09-15T08:08:50.183Z,16.20
2022-09-15T08:09:31.823Z,16.20
2022-09-15T08:10:13.629Z,16.40
2022-09-15T08:10:56.023Z,16.30
2022-09-15T08:11:37.696Z,16.20
2022-09-15T08:12:19.364Z,16.00
2022-09-15T08:13:01.497Z,16.00
2022-09-15T08:13:43.247Z,15.90
2022-09-15T08:14:25.027Z,16.40
2022-09-15T08:15:07.070Z,16.00
2022-09-15T08:15:48.936Z,16.40
2022-09-15T08:16:30.950Z,16.40
2022-09-15T08:17:12.638Z,16.60
2022-09-15T08:17:54.335Z,16.30
2022-09-15T08:18:36.655Z,16.50
2022-09-15T08:19:18.382Z,16.30
2022-09-15T08:20:00.175Z,16.50
2022-09-15T08:20:43.055Z,16.40
2022-09-15T08:21:24.799Z,16.20
2022-09-15T08:22:06.445Z,16.20
2022-09-15T08:22:48.118Z,16.30
2022-09-15T08:23:29.762Z,16.40
2022-09-15T08:24:12.061Z,16.70
2022-09-15T08:24:53.690Z,16.70
2022-09-15T08:25:35.431Z,16.40
2022-09-15T08:26:17.299Z,16.30
2022-09-15T08:26:58.931Z,16.40
2022-09-15T08:27:40.829Z,16.70
2022-09-15T08:28:22.484Z,16.40
2022-09-15T08:29:04.338Z,16.60
2022-09-15T08:29:46.091Z,16.40
2022-09-15T08:30:27.833Z,16.50
2022-09-15T08:31:11.876Z,16.40
2022-09-15T08:31:53.688Z,16.40
2022-09-15T08:32:35.356Z,16.70
2022-09-15T08:33:17.292Z,16.40
2022-09-15T08:34:03.789Z,16.80
2022-09-15T08:34:45.479Z,16.50
2022-09-15T08:35:27.483Z,17.00
2022-09-15T08:36:13.463Z,16.50
2022-09-15T08:36:55.287Z,16.70
2022-09-15T08:37:37.011Z,16.90
2022-09-15T08:38:18.686Z,16.80
2022-09-15T08:39:00.411Z,17.00
2022-09-15T08:39:42.122Z,16.70
2022-09-15T08:40:35.474Z,16.60
2022-09-15T08:41:24.321Z,16.30
2022-09-15T08:42:06.480Z,16.50
2022-09-15T08:42:51.919Z,16.60
2022-09-15T08:43:43.064Z,16.50
2022-09-15T08:44:33.713Z,16.50
2022-09-15T08:45:24.398Z,16.80
2022-09-15T08:46:11.105Z,16.60
2022-09-15T08:47:00.440Z,16.50
2022-09-15T08:47:47.561Z,16.60
2022-09-15T08:48:41.332Z,16.70
2022-09-15T08:49:50.138Z,16.60
2022-09-15T08:50:34.094Z,16.90
2022-09-15T08:51:26.149Z,16.70
2022-09-15T08:52:16.314Z,16.60
2022-09-15T08:53:09.621Z,17.00
2022-09-15T08:53:59.796Z,16.70
2022-09-15T08:54:41.646Z,16.90
2022-09-15T08:55:41.882Z,17.10
2022-09-15T08:56:23.590Z,16.80
2022-09-15T08:57:06.149Z,16.80
2022-09-15T08:57:47.798Z,16.70
2022-09-15T08:58:37.734Z,16.70
2022-09-15T08:59:20.625Z,16.80
2022-09-15T09:00:02.624Z,16.60
2022-09-15T09:00:46.534Z,16.70
2022-09-15T09:01:28.179Z,16.80
2022-09-15T09:02:12.702Z,17.00
2022-09-15T09:03:21.967Z,16.50
2022-09-15T09:04:24.015Z,16.60
2022-09-15T09:05:36.924Z,16.70
2022-09-15T09:06:43.271Z,16.70
2022-09-15T09:07:34.221Z,16.60
2022-09-15T09:08:29.105Z,16.90
2022-09-15T09:09:16.661Z,17.00
2022-09-15T09:10:07.489Z,16.90
2022-09-15T09:10:57.321Z,16.80
2022-09-15T09:12:00.483Z,16.70
2022-09-15T09:13:08.113Z,16.80
2022-09-15T09:14:09.298Z,16.80
2022-09-15T09:15:00.131Z,16.80
2022-09-15T09:15:55.892Z,17.20
2022-09-15T09:16:56.176Z,16.80
2022-09-15T09:18:00.409Z,16.90
2022-09-15T09:18:57.057Z,17.10
2022-09-15T09:19:53.697Z,17.00
2022-09-15T09:20:47.664Z,17.00
2022-09-15T09:21:41.429Z,17.40
2022-09-15T09:22:31.855Z,17.30
2022-09-15T09:23:20.508Z,17.10
2022-09-15T09:24:05.858Z,17.10
2022-09-15T09:24:54.594Z,17.00
2022-09-15T09:25:36.799Z,16.90
2022-09-15T09:26:19.354Z,17.20
2022-09-15T09:27:01.189Z,17.20
2022-09-15T09:27:43.341Z,17.00
2022-09-15T09:28:36.146Z,17.00
2022-09-15T09:29:20.259Z,17.00
2022-09-15T09:30:10.377Z,17.40
2022-09-15T09:30:52.627Z,16.90
2022-09-15T09:31:36.011Z,17.00
2022-09-15T09:32:39.548Z,16.90
2022-09-15T09:33:34.633Z,16.90
2022-09-15T09:34:28.314Z,17.00
2022-09-15T09:35:22.421Z,16.90
2022-09-15T09:36:04.145Z,16.90
2022-09-15T09:36:46.720Z,17.10
2022-09-15T09:37:28.738Z,17.00
2022-09-15T09:38:12.305Z,17.10
2022-09-15T09:38:55.669Z,17.00